Time;durP1;ratioP1;P1;durP2;ratioP2;P2;SDS_P1;SDS_P2;PMS_P1;PMS_P2;Temp;Humidity;BMP_temperature;BMP_pressure;BME280_temperature;BME280_humidity;BME280_pressure;Samples;Min_cycle;Max_cycle;Signal;HPM_P1;HPM_P2
2023/05/04 00:01:10;;;;;;;7.65;5.43;;;7.10;99.90;;;;;;5014663;28;20584;-68
2023/05/04 00:03:36;;;;;;;8.60;5.30;;;8.00;99.90;;;;;;5014627;28;20530;-68
2023/05/04 00:06:02;;;;;;;7.30;5.40;;;7.10;99.90;;;;;;5014912;28;20045;-68
2023/05/04 00:08:29;;;;;;;8.68;5.35;;;7.10;99.90;;;;;;5014294;28;20049;-67
2023/05/04 00:10:55;;;;;;;9.15;5.38;;;7.10;99.90;;;;;;5014502;28;20054;-68
2023/05/04 00:13:21;;;;;;;8.73;5.78;;;7.10;99.90;;;;;;5014297;28;20045;-68
2023/05/04 00:15:47;;;;;;;7.63;5.95;;;7.20;99.90;;;;;;5014014;28;20038;-68
2023/05/04 00:18:13;;;;;;;6.85;4.93;;;7.10;99.90;;;;;;5014763;28;20128;-68
2023/05/04 00:20:38;;;;;;;9.32;5.88;;;7.10;99.90;;;;;;4996541;28;20069;-68
2023/05/04 00:23:04;;;;;;;9.82;6.50;;;7.10;99.90;;;;;;5014542;28;20489;-68
2023/05/04 00:25:30;;;;;;;7.32;5.32;;;7.00;99.90;;;;;;5014331;28;20462;-67
2023/05/04 00:27:56;;;;;;;7.97;5.30;;;7.00;99.90;;;;;;5014164;28;20058;-68
2023/05/04 00:30:22;;;;;;;8.13;5.32;;;7.00;99.90;;;;;;5014540;28;20119;-68
2023/05/04 00:32:47;;;;;;;6.22;4.93;;;7.00;99.90;;;;;;5014316;28;20065;-67
2023/05/04 00:35:13;;;;;;;8.85;5.60;;;6.90;99.90;;;;;;5014090;28;20050;-68
2023/05/04 00:37:39;;;;;;;9.70;5.75;;;7.00;99.90;;;;;;5014251;28;20054;-68
2023/05/04 00:40:05;;;;;;;7.25;5.60;;;7.00;99.90;;;;;;5014633;28;20050;-67
2023/05/04 00:42:31;;;;;;;12.73;5.43;;;6.90;99.90;;;;;;5013906;28;20049;-67
2023/05/04 00:44:56;;;;;;;10.82;5.57;;;6.90;99.90;;;;;;5014176;28;20046;-68
2023/05/04 00:47:23;;;;;;;9.02;5.95;;;6.90;99.90;;;;;;5013597;28;20049;-68
2023/05/04 00:49:50;;;;;;;8.77;5.60;;;6.90;99.90;;;;;;4996503;28;20493;-67
2023/05/04 00:52:16;;;;;;;6.63;5.32;;;6.90;99.90;;;;;;5013816;28;20045;-67
2023/05/04 00:54:42;;;;;;;6.75;5.28;;;6.90;99.90;;;;;;5014255;28;20062;-68
2023/05/04 00:57:08;;;;;;;9.90;5.80;;;6.80;99.90;;;;;;5014055;28;20142;-67
2023/05/04 00:59:33;;;;;;;9.80;5.43;;;6.80;99.90;;;;;;5013656;28;20054;-67
2023/05/04 01:01:59;;;;;;;7.22;5.22;;;6.70;99.90;;;;;;5013669;28;20046;-67
2023/05/04 01:04:25;;;;;;;9.18;5.38;;;6.70;99.90;;;;;;4980675;28;20050;-67
2023/05/04 01:07:09;;;;;;;6.63;5.18;;;6.70;99.90;;;;;;5013625;28;20046;-67
2023/05/04 01:09:43;;;;;;;5.38;4.60;;;6.70;99.90;;;;;;5013943;28;20084;-67
2023/05/04 01:12:26;;;;;;;7.18;5.20;;;6.70;99.90;;;;;;5013968;28;20092;-68
2023/05/04 01:14:53;;;;;;;7.53;5.20;;;6.70;99.90;;;;;;5014033;28;20101;-67
2023/05/04 01:17:19;;;;;;;6.70;4.60;;;6.70;99.90;;;;;;5013364;28;20041;-67
2023/05/04 01:19:45;;;;;;;6.80;4.55;;;6.70;99.90;;;;;;5013438;28;20100;-67
2023/05/04 01:22:10;;;;;;;6.85;5.75;;;6.70;99.90;;;;;;5013717;28;20077;-67
2023/05/04 01:24:36;;;;;;;7.10;5.47;;;6.70;99.90;;;;;;5013316;28;20049;-67
2023/05/04 01:27:06;;;;;;;8.98;5.85;;;6.70;99.90;;;;;;5013113;28;20057;-68
2023/05/04 01:29:51;;;;;;;6.95;4.93;;;6.80;99.90;;;;;;5013199;28;20153;-68
2023/05/04 01:32:18;;;;;;;11.85;6.50;;;6.70;99.90;;;;;;5012976;28;20137;-67
2023/05/04 01:34:44;;;;;;;9.88;5.82;;;6.70;99.90;;;;;;5013215;28;20046;-67
2023/05/04 01:37:10;;;;;;;11.48;6.55;;;6.70;99.90;;;;;;5013324;28;20045;-68
2023/05/04 01:39:35;;;;;;;9.18;6.32;;;6.70;99.90;;;;;;5012919;28;20402;-67
2023/05/04 01:42:01;;;;;;;7.13;5.93;;;6.70;99.90;;;;;;5013111;28;20134;-67
2023/05/04 01:44:27;;;;;;;9.98;6.25;;;6.60;99.90;;;;;;4995530;28;20394;-67
2023/05/04 01:46:53;;;;;;;8.23;6.00;;;6.60;99.90;;;;;;5013141;28;20045;-67
2023/05/04 01:49:18;;;;;;;8.45;5.70;;;6.60;99.90;;;;;;5012913;28;20045;-67
2023/05/04 01:51:45;;;;;;;11.65;6.22;;;6.60;99.90;;;;;;5012958;28;20096;-67
2023/05/04 01:54:11;;;;;;;12.73;6.78;;;6.60;99.90;;;;;;4995380;28;20465;-67
2023/05/04 01:56:37;;;;;;;6.80;5.78;;;6.60;99.90;;;;;;5013140;28;20428;-67
2023/05/04 01:59:03;;;;;;;8.57;5.93;;;6.60;99.90;;;;;;4995600;28;20038;-67
2023/05/04 02:01:29;;;;;;;7.85;6.10;;;6.60;99.90;;;;;;4979219;28;20096;-68
2023/05/04 02:03:54;;;;;;;10.18;7.03;;;6.60;99.90;;;;;;4995946;28;20041;-68
2023/05/04 02:06:20;;;;;;;11.55;6.80;;;6.60;99.90;;;;;;5012433;28;20050;-68
2023/05/04 02:08:46;;;;;;;9.45;6.63;;;6.60;99.90;;;;;;4996103;28;20050;-67
2023/05/04 02:11:13;;;;;;;8.00;6.43;;;6.60;99.90;;;;;;5012999;28;20157;-68
2023/05/04 02:13:39;;;;;;;9.25;6.53;;;6.60;99.90;;;;;;5012767;28;20053;-68
2023/05/04 02:16:05;;;;;;;8.95;5.97;;;6.60;99.90;;;;;;5013070;28;20418;-68
2023/05/04 02:18:31;;;;;;;8.27;6.53;;;6.60;99.90;;;;;;5012706;28;20053;-68
2023/05/04 02:20:57;;;;;;;8.45;7.18;;;6.60;99.90;;;;;;4995097;28;20042;-68
2023/05/04 02:23:22;;;;;;;9.55;7.63;;;6.60;99.90;;;;;;5012609;28;20057;-68
2023/05/04 02:25:48;;;;;;;13.50;7.45;;;6.60;99.90;;;;;;4995080;28;20065;-68
2023/05/04 02:28:14;;;;;;;13.60;7.43;;;6.60;99.90;;;;;;4995476;28;20202;-68
2023/05/04 02:30:41;;;;;;;9.48;7.32;;;6.60;99.90;;;;;;5012833;28;20057;-68
2023/05/04 02:33:06;;;;;;;9.35;7.43;;;6.60;99.90;;;;;;5012271;28;20069;-68
2023/05/04 02:35:32;;;;;;;14.82;7.32;;;6.60;99.90;;;;;;5012899;28;20041;-68
2023/05/04 02:37:58;;;;;;;11.77;7.68;;;6.60;99.90;;;;;;5012263;28;20500;-68
2023/05/04 02:40:24;;;;;;;12.32;8.05;;;6.60;99.90;;;;;;5012328;28;20120;-67
2023/05/04 02:42:50;;;;;;;11.43;7.80;;;6.50;99.90;;;;;;5013811;28;20049;-68
2023/05/04 02:45:15;;;;;;;9.88;7.18;;;6.60;99.90;;;;;;4998686;28;20481;-68
2023/05/04 02:47:41;;;;;;;10.18;8.35;;;6.60;99.90;;;;;;4998855;28;20044;-68
2023/05/04 02:50:07;;;;;;;10.30;7.60;;;6.60;99.90;;;;;;5016266;28;20133;-68
2023/05/04 02:52:33;;;;;;;12.85;8.23;;;6.60;99.90;;;;;;5016471;28;20050;-69
2023/05/04 02:55:00;;;;;;;13.57;8.43;;;6.50;99.90;;;;;;5016226;28;20049;-68
2023/05/04 02:57:25;;;;;;;10.70;8.48;;;6.60;99.90;;;;;;4998513;28;20073;-68
2023/05/04 02:59:51;;;;;;;11.65;8.15;;;6.60;99.90;;;;;;5016250;28;20129;-68
2023/05/04 03:02:17;;;;;;;14.10;7.40;;;6.60;99.90;;;;;;5016242;28;20054;-68
2023/05/04 03:04:42;;;;;;;11.95;7.72;;;6.60;99.90;;;;;;5015816;28;20041;-68
2023/05/04 03:07:08;;;;;;;11.85;8.50;;;6.50;99.90;;;;;;5015525;28;20129;-68
2023/05/04 03:09:34;;;;;;;14.25;8.70;;;6.60;99.90;;;;;;4998368;28;20229;-68
2023/05/04 03:12:01;;;;;;;14.38;8.48;;;6.60;99.90;;;;;;4998334;28;20173;-68
2023/05/04 03:14:27;;;;;;;12.95;8.05;;;6.60;99.90;;;;;;5015520;28;20092;-68
2023/05/04 03:16:52;;;;;;;13.18;8.18;;;6.60;99.90;;;;;;4982047;28;20054;-68
2023/05/04 03:19:20;;;;;;;9.88;8.02;;;6.60;99.90;;;;;;4998451;28;20061;-68
2023/05/04 03:21:46;;;;;;;10.57;8.23;;;6.60;99.90;;;;;;4982353;28;20453;-68
2023/05/04 03:24:12;;;;;;;9.80;8.13;;;6.60;99.90;;;;;;5016045;28;20085;-68
2023/05/04 03:26:38;;;;;;;13.63;9.10;;;6.60;99.90;;;;;;5015737;28;20430;-68
2023/05/04 03:29:04;;;;;;;12.77;9.15;;;6.60;99.90;;;;;;5015961;28;20465;-68
2023/05/04 03:31:30;;;;;;;10.93;8.70;;;6.60;99.90;;;;;;5015446;28;20054;-68
2023/05/04 03:33:55;;;;;;;15.05;8.63;;;6.60;99.90;;;;;;5014879;28;20057;-68
2023/05/04 03:36:21;;;;;;;18.30;8.98;;;6.80;99.90;;;;;;5015157;28;20053;-68
2023/05/04 03:38:47;;;;;;;11.88;8.70;;;6.50;99.90;;;;;;4997779;28;20042;-68
2023/05/04 03:41:12;;;;;;;13.50;10.13;;;6.50;99.90;;;;;;5015549;28;20050;-68
2023/05/04 03:43:38;;;;;;;14.63;9.88;;;6.60;99.90;;;;;;5015459;28;20038;-68
2023/05/04 03:46:04;;;;;;;11.38;9.38;;;6.50;99.90;;;;;;5015137;28;20050;-68
2023/05/04 03:48:30;;;;;;;10.75;8.98;;;6.50;99.90;;;;;;5015090;28;20445;-68
2023/05/04 03:50:56;;;;;;;12.52;9.50;;;6.50;99.90;;;;;;4998238;28;20085;-68
2023/05/04 03:53:22;;;;;;;14.82;9.05;;;6.40;99.90;;;;;;4998223;28;20050;-68
2023/05/04 03:55:47;;;;;;;12.30;8.55;;;6.40;99.90;;;;;;4997374;28;20477;-68
2023/05/04 03:58:13;;;;;;;14.90;8.98;;;6.40;99.90;;;;;;4981517;28;20053;-68
2023/05/04 04:00:39;;;;;;;16.88;9.18;;;6.40;99.90;;;;;;5015285;28;20053;-68
2023/05/04 04:03:05;;;;;;;14.85;9.25;;;6.40;99.90;;;;;;5014845;28;20057;-69
2023/05/04 04:05:30;;;;;;;13.77;8.57;;;5.70;99.90;;;;;;4997191;28;20128;-68
2023/05/04 04:07:56;;;;;;;13.93;9.07;;;6.40;99.90;;;;;;4997900;28;20108;-68
2023/05/04 04:10:22;;;;;;;13.38;9.13;;;6.50;99.90;;;;;;5014953;28;20050;-68
2023/05/04 04:12:48;;;;;;;14.73;10.27;;;6.50;99.90;;;;;;5015226;28;20460;-68
2023/05/04 04:15:14;;;;;;;11.82;8.07;;;6.50;99.90;;;;;;5014444;28;20050;-68
2023/05/04 04:17:40;;;;;;;15.50;8.77;;;6.60;99.90;;;;;;5014584;28;20073;-68
2023/05/04 04:20:06;;;;;;;12.50;7.88;;;6.60;99.90;;;;;;5014520;28;20084;-68
2023/05/04 04:22:32;;;;;;;12.18;8.98;;;6.60;99.90;;;;;;5014452;28;20054;-68
2023/05/04 04:24:57;;;;;;;13.85;9.23;;;6.60;99.90;;;;;;5014455;28;20050;-69
2023/05/04 04:27:23;;;;;;;13.00;8.95;;;6.60;99.90;;;;;;5014403;28;20472;-68
2023/05/04 04:29:49;;;;;;;10.68;7.97;;;6.70;99.90;;;;;;5013922;28;20050;-68
2023/05/04 04:32:14;;;;;;;14.80;8.32;;;6.70;99.90;;;;;;5014000;28;20093;-68
2023/05/04 04:34:40;;;;;;;12.68;8.88;;;6.70;99.90;;;;;;5014144;28;20050;-68
2023/05/04 04:37:06;;;;;;;12.73;9.13;;;6.70;99.90;;;;;;5014212;28;20132;-68
2023/05/04 04:39:31;;;;;;;15.32;9.45;;;6.70;99.90;;;;;;5014320;28;20481;-67
2023/05/04 04:41:57;;;;;;;12.02;7.90;;;6.70;99.90;;;;;;4996789;28;20052;-67
2023/05/04 04:44:23;;;;;;;12.13;8.07;;;6.70;99.90;;;;;;5014084;28;20053;-67
2023/05/04 04:46:49;;;;;;;12.38;8.20;;;6.70;99.90;;;;;;5014025;28;20092;-67
2023/05/04 04:49:16;;;;;;;10.88;8.77;;;6.70;99.90;;;;;;5014448;28;20050;-67
2023/05/04 04:51:42;;;;;;;12.63;7.65;;;6.70;99.90;;;;;;5014060;28;20058;-67
2023/05/04 04:54:08;;;;;;;13.43;8.63;;;6.80;99.90;;;;;;4996915;28;20041;-67
2023/05/04 04:56:35;;;;;;;13.50;8.00;;;6.80;99.90;;;;;;5013717;28;20072;-67
2023/05/04 04:59:00;;;;;;;12.52;9.00;;;6.80;99.90;;;;;;5013695;28;20046;-67
2023/05/04 05:01:26;;;;;;;13.00;8.40;;;6.80;99.90;;;;;;5013864;28;20038;-69
2023/05/04 05:03:52;;;;;;;13.48;8.50;;;6.80;99.90;;;;;;4980135;28;20057;-68
2023/05/04 05:06:18;;;;;;;10.80;8.10;;;6.80;99.90;;;;;;4995639;28;20050;-68
2023/05/04 05:08:44;;;;;;;13.23;7.68;;;6.90;99.90;;;;;;5013683;28;20129;-68
2023/05/04 05:11:10;;;;;;;12.00;8.15;;;6.90;99.90;;;;;;5013139;28;20046;-68
2023/05/04 05:13:36;;;;;;;9.77;7.85;;;6.90;99.90;;;;;;5013680;28;20046;-68
2023/05/04 05:16:01;;;;;;;13.95;7.60;;;7.00;99.90;;;;;;5013651;28;20140;-68
2023/05/04 05:18:28;;;;;;;14.10;8.55;;;7.00;99.90;;;;;;5013344;28;20426;-68
2023/05/04 05:20:55;;;;;;;12.70;8.00;;;7.10;99.90;;;;;;5013176;28;20478;-68
2023/05/04 05:23:21;;;;;;;10.85;6.90;;;7.10;99.90;;;;;;5012883;28;20517;-68
2023/05/04 05:25:46;;;;;;;10.02;7.60;;;7.10;99.90;;;;;;4996334;28;20049;-68
2023/05/04 05:28:16;;;;;;;11.35;7.63;;;7.10;99.90;;;;;;5013124;28;20076;-68
2023/05/04 05:30:41;;;;;;;12.43;7.45;;;7.20;99.90;;;;;;5013145;28;20191;-68
2023/05/04 05:33:07;;;;;;;11.52;7.20;;;7.20;99.90;;;;;;5013076;28;20089;-68
2023/05/04 05:35:33;;;;;;;13.32;8.05;;;7.30;99.90;;;;;;5013095;28;20072;-68
2023/05/04 05:37:59;;;;;;;14.32;8.20;;;7.30;99.90;;;;;;5013377;28;20553;-68
2023/05/04 05:40:24;;;;;;;12.07;8.02;;;7.40;99.90;;;;;;5012849;28;20072;-68
2023/05/04 05:42:51;;;;;;;14.55;8.27;;;7.50;99.90;;;;;;4995371;28;20045;-68
2023/05/04 05:45:18;;;;;;;14.35;7.05;;;7.50;99.90;;;;;;4995646;28;20111;-68
2023/05/04 05:47:43;;;;;;;12.98;7.50;;;7.60;99.90;;;;;;5012870;28;20103;-68
2023/05/04 05:50:11;;;;;;;12.73;7.43;;;7.70;99.90;;;;;;4979292;28;20453;-68
2023/05/04 05:52:37;;;;;;;12.73;8.13;;;7.70;99.90;;;;;;5012659;28;20088;-68
2023/05/04 05:55:02;;;;;;;12.27;7.53;;;7.80;99.90;;;;;;5012585;28;20081;-68
2023/05/04 05:57:28;;;;;;;14.35;7.55;;;7.90;99.90;;;;;;5012580;28;20061;-68
2023/05/04 05:59:54;;;;;;;9.70;7.70;;;7.90;99.90;;;;;;5012977;28;20050;-68
2023/05/04 06:02:19;;;;;;;11.20;7.60;;;8.00;99.90;;;;;;4995329;28;20121;-68
2023/05/04 06:04:45;;;;;;;15.07;8.15;;;8.00;99.90;;;;;;5013120;28;20064;-68
2023/05/04 06:07:12;;;;;;;12.45;8.13;;;8.10;99.90;;;;;;4995240;28;20173;-68
2023/05/04 06:09:38;;;;;;;10.40;7.45;;;8.10;99.90;;;;;;5012942;28;20054;-68
2023/05/04 06:12:05;;;;;;;19.00;7.32;;;8.20;99.90;;;;;;4995333;28;20122;-68
2023/05/04 06:14:32;;;;;;;9.93;7.10;;;8.20;99.90;;;;;;4995171;28;20046;-68
2023/05/04 06:16:57;;;;;;;13.32;7.50;;;8.30;99.90;;;;;;5012550;28;20050;-68
2023/05/04 06:19:24;;;;;;;8.25;7.18;;;8.40;99.90;;;;;;5016553;28;20132;-68
2023/05/04 06:21:49;;;;;;;12.57;7.50;;;8.50;99.90;;;;;;5016745;28;20056;-68
2023/05/04 06:24:15;;;;;;;12.63;7.78;;;8.60;99.90;;;;;;5017142;28;20046;-68
2023/05/04 06:26:41;;;;;;;9.50;7.15;;;8.60;99.90;;;;;;5016601;28;20528;-68
2023/05/04 06:29:06;;;;;;;10.32;7.05;;;8.80;99.90;;;;;;5016379;28;20050;-68
2023/05/04 06:31:32;;;;;;;15.70;7.72;;;8.90;99.90;;;;;;5016412;28;20049;-68
2023/05/04 06:33:58;;;;;;;13.85;7.63;;;9.10;99.90;;;;;;5016397;28;20137;-68
2023/05/04 06:36:26;;;;;;;10.20;7.35;;;9.20;99.90;;;;;;5016539;28;20125;-68
2023/05/04 06:38:54;;;;;;;11.13;7.45;;;9.30;99.90;;;;;;4999653;28;20057;-68
2023/05/04 06:41:20;;;;;;;10.50;7.68;;;9.50;99.90;;;;;;4982999;28;20058;-68
2023/05/04 06:43:45;;;;;;;10.23;6.88;;;9.60;99.90;;;;;;5016628;28;20053;-68
2023/05/04 06:46:11;;;;;;;12.70;7.72;;;9.90;99.90;;;;;;4998762;28;20061;-68
2023/05/04 06:48:37;;;;;;;10.20;6.60;;;10.40;99.90;;;;;;5016679;28;20056;-68
2023/05/04 06:51:03;;;;;;;13.02;6.90;;;10.90;99.90;;;;;;5016370;28;20474;-68
2023/05/04 06:53:29;;;;;;;11.95;6.70;;;11.30;99.90;;;;;;4998956;28;20052;-68
2023/05/04 06:55:55;;;;;;;8.85;6.40;;;11.70;99.90;;;;;;5016262;28;20046;-68
2023/05/04 06:58:20;;;;;;;10.77;6.45;;;12.00;99.90;;;;;;4998838;28;20046;-68
2023/05/04 07:00:47;;;;;;;8.15;6.03;;;12.40;99.90;;;;;;5016002;28;20057;-68
2023/05/04 07:03:12;;;;;;;11.45;6.57;;;12.50;99.90;;;;;;5015927;28;20056;-68
2023/05/04 07:05:38;;;;;;;7.10;4.82;;;13.00;99.90;;;;;;5015907;28;20042;-68
2023/05/04 07:08:04;;;;;;;9.23;5.30;;;13.60;99.90;;;;;;5015808;28;20038;-68
2023/05/04 07:10:30;;;;;;;9.75;5.63;;;13.60;99.90;;;;;;4998454;28;20053;-68
2023/05/04 07:12:56;;;;;;;8.63;5.68;;;14.00;99.90;;;;;;5015633;28;20046;-69
2023/05/04 07:15:21;;;;;;;9.48;5.13;;;14.30;99.90;;;;;;5015692;28;20038;-69
2023/05/04 07:17:47;;;;;;;8.90;5.55;;;14.50;99.90;;;;;;5015217;28;20609;-69
2023/05/04 07:20:14;;;;;;;8.73;5.38;;;14.60;99.90;;;;;;5015299;28;20053;-69
2023/05/04 07:22:40;;;;;;;8.10;4.95;;;14.50;99.90;;;;;;5015245;28;20042;-69
2023/05/04 07:25:06;;;;;;;9.80;5.20;;;14.60;99.90;;;;;;4998208;28;20046;-69
2023/05/04 07:27:33;;;;;;;11.68;6.45;;;14.50;99.90;;;;;;4997863;28;20103;-69
2023/05/04 07:30:00;;;;;;;12.02;6.60;;;14.70;99.90;;;;;;4997855;28;20376;-69
2023/05/04 07:32:26;;;;;;;9.15;5.60;;;14.40;99.90;;;;;;5015050;28;20049;-69
2023/05/04 07:34:52;;;;;;;7.25;5.22;;;14.50;99.80;;;;;;5015522;28;20482;-69
2023/05/04 07:37:18;;;;;;;7.40;5.57;;;14.40;99.90;;;;;;4997736;28;20050;-68
2023/05/04 07:39:44;;;;;;;6.70;4.47;;;14.70;99.10;;;;;;5015130;28;20045;-69
2023/05/04 07:42:10;;;;;;;12.63;5.43;;;14.70;98.20;;;;;;5015049;28;20126;-69
2023/05/04 07:44:36;;;;;;;9.05;5.35;;;14.90;98.10;;;;;;5014973;28;20046;-69
2023/05/04 07:47:02;;;;;;;9.77;4.97;;;15.00;97.70;;;;;;5014908;28;20060;-69
2023/05/04 07:49:27;;;;;;;8.30;4.45;;;15.00;97.70;;;;;;5014624;28;20144;-69
2023/05/04 07:51:53;;;;;;;6.38;4.97;;;15.30;97.90;;;;;;5014617;28;20104;-69
2023/05/04 07:54:19;;;;;;;6.10;4.95;;;15.40;97.10;;;;;;5014600;28;20041;-69
2023/05/04 07:56:45;;;;;;;9.07;5.75;;;15.40;96.80;;;;;;5014564;28;20096;-69
2023/05/04 07:59:11;;;;;;;7.15;5.07;;;15.50;97.00;;;;;;5015156;28;20125;-69
2023/05/04 08:01:37;;;;;;;6.82;4.55;;;15.20;96.50;;;;;;5014986;28;20037;-69
2023/05/04 08:04:02;;;;;;;9.07;5.43;;;15.70;96.70;;;;;;5014903;28;20053;-69
2023/05/04 08:06:28;;;;;;;6.60;4.70;;;16.10;96.60;;;;;;5014650;28;20050;-69
2023/05/04 08:08:54;;;;;;;7.43;4.95;;;16.40;96.40;;;;;;5014709;28;20050;-69
2023/05/04 08:11:20;;;;;;;6.32;4.90;;;16.40;95.60;;;;;;5014888;28;20088;-69
2023/05/04 08:13:46;;;;;;;7.97;5.70;;;16.50;95.70;;;;;;5015115;28;20092;-70
2023/05/04 08:16:12;;;;;;;11.10;5.28;;;16.40;95.80;;;;;;5014411;28;20080;-70
2023/05/04 08:18:38;;;;;;;6.80;5.80;;;16.10;96.00;;;;;;5014463;28;20042;-70
2023/05/04 08:21:04;;;;;;;7.35;5.22;;;16.10;95.50;;;;;;5014448;28;20042;-69
2023/05/04 08:23:30;;;;;;;7.47;5.80;;;16.10;95.30;;;;;;5014520;28;20041;-69
2023/05/04 08:25:56;;;;;;;7.63;5.72;;;16.10;95.40;;;;;;5014775;28;20089;-69
2023/05/04 08:28:22;;;;;;;5.80;4.20;;;16.20;95.90;;;;;;5014328;28;20049;-69
2023/05/04 08:30:48;;;;;;;7.13;5.43;;;16.50;95.60;;;;;;5014088;28;20454;-69
2023/05/04 08:33:13;;;;;;;7.03;5.13;;;16.90;95.10;;;;;;5014272;28;20054;-69
2023/05/04 08:35:39;;;;;;;8.73;4.43;;;17.30;94.90;;;;;;5014135;28;20050;-69
2023/05/04 08:38:06;;;;;;;7.22;5.25;;;17.50;94.30;;;;;;5014573;28;20061;-70
2023/05/04 08:40:32;;;;;;;7.68;5.72;;;17.40;93.60;;;;;;5013178;28;20054;-69
2023/05/04 08:42:58;;;;;;;10.35;5.40;;;17.60;93.80;;;;;;4996538;28;20367;-69
2023/05/04 08:45:24;;;;;;;8.15;4.88;;;17.70;93.40;;;;;;4996425;28;20038;-69
2023/05/04 08:47:50;;;;;;;5.00;4.60;;;17.60;92.80;;;;;;5013661;28;20482;-70
2023/05/04 08:50:16;;;;;;;7.50;5.03;;;17.50;92.60;;;;;;5013803;28;20129;-69
2023/05/04 08:52:46;;;;;;;8.25;4.90;;;17.60;92.70;;;;;;5014480;28;20053;-69
2023/05/04 08:55:12;;;;;;;6.78;5.38;;;17.70;92.20;;;;;;5013709;28;20077;-69
2023/05/04 08:57:41;;;;;;;7.45;5.68;;;17.70;92.20;;;;;;5013748;28;20111;-70
2023/05/04 09:00:08;;;;;;;7.07;5.22;;;18.00;92.20;;;;;;4980278;28;20049;-69
2023/05/04 09:02:35;;;;;;;10.55;5.15;;;18.30;92.10;;;;;;5013589;28;20073;-69
2023/05/04 09:05:01;;;;;;;11.43;5.80;;;17.90;91.60;;;;;;5013550;28;20108;-70
2023/05/04 09:07:26;;;;;;;8.95;5.75;;;18.40;92.10;;;;;;5013644;28;20447;-70
2023/05/04 09:09:53;;;;;;;8.23;5.53;;;17.90;91.90;;;;;;5014066;28;20052;-69
2023/05/04 09:12:18;;;;;;;9.38;6.10;;;18.10;92.10;;;;;;5013780;28;20054;-68
2023/05/04 09:14:47;;;;;;;7.95;5.20;;;18.20;92.10;;;;;;5013766;28;20133;-68
2023/05/04 09:17:28;;;;;;;6.43;5.50;;;18.50;91.70;;;;;;5013259;28;20042;-69
2023/05/04 09:20:01;;;;;;;11.18;5.25;;;18.80;90.70;;;;;;5013877;28;20054;-70
2023/05/04 09:22:28;;;;;;;9.85;5.30;;;18.80;90.40;;;;;;5013839;28;20141;-69
2023/05/04 09:25:11;;;;;;;7.95;5.28;;;18.20;90.70;;;;;;5013193;28;20091;-69
2023/05/04 09:27:38;;;;;;;9.85;6.32;;;18.30;90.60;;;;;;5013135;28;20149;-70
2023/05/04 09:30:04;;;;;;;13.43;5.63;;;18.30;91.00;;;;;;4995819;28;20487;-69
2023/05/04 09:32:29;;;;;;;7.53;5.35;;;18.70;91.20;;;;;;5012778;28;20065;-70
2023/05/04 09:34:55;;;;;;;8.10;5.57;;;18.50;91.10;;;;;;5012871;28;20169;-70
2023/05/04 09:37:21;;;;;;;5.30;4.80;;;18.60;91.20;;;;;;4995707;28;20355;-70
2023/05/04 09:39:56;;;;;;;6.97;5.10;;;18.60;91.00;;;;;;5013558;28;20050;-70
2023/05/04 09:42:23;;;;;;;7.22;4.95;;;18.90;90.30;;;;;;5013006;28;20056;-68
2023/05/04 09:45:03;;;;;;;10.43;5.10;;;19.10;89.40;;;;;;4963172;28;20054;-69
2023/05/04 09:47:47;;;;;;;5.65;5.00;;;19.20;87.70;;;;;;4979798;28;20105;-68
2023/05/04 09:50:22;;;;;;;5.93;4.82;;;19.20;87.00;;;;;;5013217;28;20134;-68
2023/05/04 09:52:48;;;;;;;7.53;4.75;;;19.60;86.80;;;;;;5012816;28;20052;-70
2023/05/04 09:55:19;;;;;;;4.97;4.13;;;19.80;87.70;;;;;;5012661;28;20121;-68
2023/05/04 09:57:47;;;;;;;6.45;4.70;;;19.90;87.20;;;;;;5012778;28;20095;-67
2023/05/04 10:00:17;;;;;;;7.68;5.10;;;19.60;85.30;;;;;;5013202;28;20121;-68
2023/05/04 10:02:46;;;;;;;6.05;4.47;;;19.50;86.10;;;;;;5013484;28;20050;-69
2023/05/04 10:05:20;;;;;;;9.18;5.00;;;19.60;85.30;;;;;;5013155;28;20049;-73
2023/05/04 10:07:46;;;;;;;6.93;4.80;;;19.90;85.50;;;;;;5012343;28;20054;-69
2023/05/04 10:10:13;;;;;;;8.10;4.70;;;20.10;84.70;;;;;;4978677;28;20092;-68
2023/05/04 10:12:39;;;;;;;7.18;4.45;;;20.10;84.80;;;;;;4995299;28;20415;-69
2023/05/04 10:15:09;;;;;;;7.65;4.70;;;20.10;84.90;;;;;;5012477;28;20038;-68
2023/05/04 10:17:44;;;;;;;6.78;4.97;;;19.90;83.60;;;;;;4995141;28;20492;-68
2023/05/04 10:20:21;;;;;;;5.22;4.70;;;20.00;84.40;;;;;;5012615;28;20042;-68
2023/05/04 10:23:33;;;;;;;7.75;5.00;;;20.00;84.10;;;;;;5012496;28;20050;-68
2023/05/04 10:26:21;;;;;;;6.10;4.35;;;20.00;84.50;;;;;;5012391;28;20034;-68
2023/05/04 10:29:20;;;;;;;3.85;3.45;;;19.90;83.30;;;;;;5012957;28;20053;-69
2023/05/04 10:31:46;;;;;;;9.43;5.13;;;19.70;83.10;;;;;;5012541;28;20089;-68
2023/05/04 10:34:24;;;;;;;7.55;4.57;;;19.50;83.50;;;;;;5012759;28;20124;-68
2023/05/04 10:36:49;;;;;;;6.18;4.85;;;19.60;82.50;;;;;;5012399;28;20054;-68
2023/05/04 10:39:20;;;;;;;5.13;4.63;;;19.70;82.70;;;;;;5012364;28;20052;-68
2023/05/04 10:42:02;;;;;;;5.90;4.30;;;19.80;82.60;;;;;;5012585;28;20052;-68
2023/05/04 10:44:30;;;;;;;5.32;4.10;;;20.10;83.00;;;;;;5012431;28;20125;-69
2023/05/04 10:47:04;;;;;;;9.73;5.05;;;20.10;84.10;;;;;;5012329;28;20054;-69
2023/05/04 10:49:31;;;;;;;8.55;4.45;;;20.40;83.40;;;;;;5012414;28;20049;-68
2023/05/04 10:52:04;;;;;;;7.78;4.85;;;20.10;83.00;;;;;;5012307;28;20046;-68
2023/05/04 10:54:30;;;;;;;;;;;20.00;82.40;;;;;;5012694;28;20153;-69
2023/05/04 10:57:03;;;;;;;8.48;4.35;;;19.90;82.60;;;;;;5012574;28;20369;-69
2023/05/04 10:59:30;;;;;;;17.33;5.57;;;19.80;82.80;;;;;;4994822;28;20117;-68
2023/05/04 11:01:56;;;;;;;12.68;5.30;;;19.30;82.10;;;;;;5012217;28;20050;-69
2023/05/04 11:04:22;;;;;;;8.23;4.30;;;19.50;82.90;;;;;;5014253;28;20049;-68
2023/05/04 11:07:04;;;;;;;6.95;4.68;;;19.60;81.80;;;;;;5016265;28;20124;-68
2023/05/04 11:09:40;;;;;;;5.50;4.28;;;19.50;82.10;;;;;;5016168;28;20042;-68
2023/05/04 11:12:09;;;;;;;7.72;5.57;;;19.50;81.00;;;;;;5015776;28;20053;-68
2023/05/04 11:14:41;;;;;;;7.68;5.25;;;19.40;81.60;;;;;;4982213;28;20046;-69
2023/05/04 11:17:11;;;;;;;7.28;4.93;;;19.40;82.20;;;;;;5016080;28;20061;-69
2023/05/04 11:19:51;;;;;;;9.05;5.68;;;19.40;82.40;;;;;;5015414;28;20475;-69
2023/05/04 11:22:17;;;;;;;5.63;5.15;;;19.30;82.20;;;;;;5015442;28;20053;-69
2023/05/04 11:24:44;;;;;;;5.55;4.60;;;19.10;82.30;;;;;;5015684;28;20061;-68
2023/05/04 11:27:40;;;;;;;7.65;4.25;;;19.00;81.80;;;;;;5015225;28;20450;-69
2023/05/04 11:30:07;;;;;;;5.43;4.13;;;19.00;82.00;;;;;;4989948;28;20479;-69
2023/05/04 11:32:34;;;;;;;9.50;4.88;;;19.00;81.60;;;;;;4997798;28;20062;-69
2023/05/04 11:35:01;;;;;;;6.03;4.65;;;19.10;80.80;;;;;;5015258;28;20052;-69
2023/05/04 11:37:30;;;;;;;10.02;5.40;;;19.20;81.90;;;;;;5015760;28;20046;-69
2023/05/04 11:39:57;;;;;;;10.55;5.28;;;19.20;81.90;;;;;;4998379;28;20404;-69
2023/05/04 11:42:23;;;;;;;10.00;5.50;;;19.30;81.80;;;;;;5015202;28;20049;-69
2023/05/04 11:44:50;;;;;;;12.23;5.72;;;19.50;82.40;;;;;;5015067;28;20042;-68
2023/05/04 11:47:16;;;;;;;8.77;5.50;;;19.60;81.90;;;;;;4997597;28;20050;-68
2023/05/04 11:49:44;;;;;;;11.13;5.68;;;19.70;81.20;;;;;;5015133;28;20503;-69
2023/05/04 11:52:11;;;;;;;10.68;5.80;;;19.70;81.00;;;;;;4997931;28;20050;-68
2023/05/04 11:54:36;;;;;;;8.25;4.70;;;19.40;81.60;;;;;;4997821;28;20462;-68
2023/05/04 11:57:03;;;;;;;6.38;4.63;;;19.50;81.80;;;;;;5015422;28;20061;-70
2023/05/04 11:59:29;;;;;;;8.88;5.00;;;19.50;81.90;;;;;;4997796;28;20443;-70
2023/05/04 12:01:56;;;;;;;6.57;4.70;;;19.70;82.50;;;;;;4981276;28;20129;-70
2023/05/04 12:04:21;;;;;;;8.38;5.57;;;19.60;82.70;;;;;;5015105;28;20060;-69
2023/05/04 12:06:47;;;;;;;9.13;5.68;;;19.40;82.30;;;;;;5014553;28;20459;-69
2023/05/04 12:09:13;;;;;;;7.03;4.93;;;19.40;83.30;;;;;;4997987;28;20056;-69
2023/05/04 12:11:39;;;;;;;8.30;4.60;;;19.50;81.80;;;;;;4997139;28;20414;-69
2023/05/04 12:14:05;;;;;;;9.30;5.70;;;19.70;81.20;;;;;;4965090;28;20340;-69
2023/05/04 12:16:32;;;;;;;9.05;5.18;;;19.70;80.00;;;;;;5014849;28;20061;-69
2023/05/04 12:19:09;;;;;;;6.20;5.20;;;19.70;80.50;;;;;;5014967;28;20054;-69
2023/05/04 12:21:36;;;;;;;6.63;5.50;;;19.80;81.00;;;;;;5014527;28;20085;-69
2023/05/04 12:24:04;;;;;;;8.23;4.53;;;20.00;81.00;;;;;;5014268;28;20495;-69
2023/05/04 12:26:30;;;;;;;6.97;4.63;;;20.20;80.70;;;;;;5014393;28;20046;-68
2023/05/04 12:28:55;;;;;;;7.05;5.30;;;20.20;80.10;;;;;;5013804;28;20463;-69
2023/05/04 12:31:22;;;;;;;6.57;4.80;;;20.10;80.20;;;;;;5014053;28;20053;-69
2023/05/04 12:33:49;;;;;;;10.35;5.47;;;20.10;80.10;;;;;;5014105;28;20077;-70
2023/05/04 12:36:16;;;;;;;7.70;4.85;;;19.90;80.40;;;;;;5013789;28;20049;-69
2023/05/04 12:38:41;;;;;;;9.75;5.47;;;20.00;80.60;;;;;;5013993;28;20133;-69
2023/05/04 12:41:09;;;;;;;7.60;5.10;;;20.10;80.10;;;;;;5013994;28;20088;-69
2023/05/04 12:43:35;;;;;;;7.35;4.95;;;20.00;79.30;;;;;;5013547;28;20065;-69
2023/05/04 12:46:01;;;;;;;6.75;4.78;;;20.10;79.40;;;;;;4980999;28;20378;-69
2023/05/04 12:48:30;;;;;;;10.68;5.80;;;20.10;79.90;;;;;;5013862;28;20050;-68